sensor_id;sensor_type;location;lat;lon;timestamp;P1;durP1;ratioP1;P2;durP2;ratioP2
64197;SDS011;50512;53.666;9.700;2023-07-31T00:02:09;7.40;;;2.60;;
64197;SDS011;50512;53.666;9.700;2023-07-31T00:04:36;6.80;;;2.75;;
64197;SDS011;50512;53.666;9.700;2023-07-31T00:07:02;6.53;;;2.58;;
64197;SDS011;50512;53.666;9.700;2023-07-31T00:09:31;9.88;;;3.50;;
64197;SDS011;50512;53.666;9.700;2023-07-31T00:11:59;9.00;;;2.45;;
64197;SDS011;50512;53.666;9.700;2023-07-31T00:14:26;10.18;;;3.10;;
64197;SDS011;50512;53.666;9.700;2023-07-31T00:16:52;5.65;;;2.83;;
64197;SDS011;50512;53.666;9.700;2023-07-31T00:19:19;8.77;;;2.72;;
64197;SDS011;50512;53.666;9.700;2023-07-31T00:21:45;5.97;;;2.97;;
64197;SDS011;50512;53.666;9.700;2023-07-31T00:24:12;11.32;;;3.42;;
64197;SDS011;50512;53.666;9.700;2023-07-31T00:26:38;7.93;;;2.75;;
64197;SDS011;50512;53.666;9.700;2023-07-31T00:29:06;6.57;;;3.08;;
64197;SDS011;50512;53.666;9.700;2023-07-31T00:31:32;8.60;;;3.22;;
64197;SDS011;50512;53.666;9.700;2023-07-31T00:33:59;8.68;;;2.95;;
64197;SDS011;50512;53.666;9.700;2023-07-31T00:36:25;10.55;;;3.35;;
64197;SDS011;50512;53.666;9.700;2023-07-31T00:38:52;10.30;;;3.22;;
64197;SDS011;50512;53.666;9.700;2023-07-31T00:41:18;8.32;;;2.90;;
64197;SDS011;50512;53.666;9.700;2023-07-31T00:43:44;10.38;;;3.08;;
64197;SDS011;50512;53.666;9.700;2023-07-31T00:46:12;9.23;;;2.70;;
64197;SDS011;50512;53.666;9.700;2023-07-31T00:48:39;6.68;;;2.78;;
64197;SDS011;50512;53.666;9.700;2023-07-31T00:51:06;6.95;;;2.55;;
64197;SDS011;50512;53.666;9.700;2023-07-31T00:53:33;13.20;;;4.45;;
64197;SDS011;50512;53.666;9.700;2023-07-31T00:56:00;15.45;;;3.33;;
64197;SDS011;50512;53.666;9.700;2023-07-31T00:58:27;8.68;;;3.28;;
64197;SDS011;50512;53.666;9.700;2023-07-31T01:00:53;11.18;;;3.45;;
64197;SDS011;50512;53.666;9.700;2023-07-31T01:03:21;6.95;;;2.63;;
64197;SDS011;50512;53.666;9.700;2023-07-31T01:05:49;7.78;;;2.80;;
64197;SDS011;50512;53.666;9.700;2023-07-31T01:08:31;14.18;;;2.67;;
64197;SDS011;50512;53.666;9.700;2023-07-31T01:11:02;9.38;;;3.38;;
64197;SDS011;50512;53.666;9.700;2023-07-31T01:13:33;8.70;;;3.17;;
64197;SDS011;50512;53.666;9.700;2023-07-31T01:16:00;7.57;;;2.75;;
64197;SDS011;50512;53.666;9.700;2023-07-31T01:18:28;7.00;;;2.50;;
64197;SDS011;50512;53.666;9.700;2023-07-31T01:20:56;8.23;;;2.53;;
64197;SDS011;50512;53.666;9.700;2023-07-31T01:23:41;11.02;;;2.90;;
64197;SDS011;50512;53.666;9.700;2023-07-31T01:26:19;8.18;;;2.78;;
64197;SDS011;50512;53.666;9.700;2023-07-31T01:28:50;7.15;;;2.80;;
64197;SDS011;50512;53.666;9.700;2023-07-31T01:31:22;18.30;;;4.05;;
64197;SDS011;50512;53.666;9.700;2023-07-31T01:33:50;10.48;;;2.90;;
64197;SDS011;50512;53.666;9.700;2023-07-31T01:36:18;4.88;;;2.95;;
64197;SDS011;50512;53.666;9.700;2023-07-31T01:38:45;9.68;;;3.08;;
64197;SDS011;50512;53.666;9.700;2023-07-31T01:41:11;7.90;;;3.15;;
64197;SDS011;50512;53.666;9.700;2023-07-31T01:43:39;7.68;;;2.90;;
64197;SDS011;50512;53.666;9.700;2023-07-31T01:46:06;7.45;;;2.80;;
64197;SDS011;50512;53.666;9.700;2023-07-31T01:48:32;7.50;;;3.13;;
64197;SDS011;50512;53.666;9.700;2023-07-31T01:51:01;11.20;;;3.10;;
64197;SDS011;50512;53.666;9.700;2023-07-31T01:53:28;10.20;;;3.50;;
64197;SDS011;50512;53.666;9.700;2023-07-31T01:55:55;8.75;;;2.60;;
64197;SDS011;50512;53.666;9.700;2023-07-31T01:58:21;9.57;;;3.25;;
64197;SDS011;50512;53.666;9.700;2023-07-31T02:00:49;16.60;;;4.35;;
64197;SDS011;50512;53.666;9.700;2023-07-31T02:03:15;9.85;;;3.92;;
64197;SDS011;50512;53.666;9.700;2023-07-31T02:05:44;10.63;;;3.70;;
64197;SDS011;50512;53.666;9.700;2023-07-31T02:08:10;9.65;;;3.65;;
64197;SDS011;50512;53.666;9.700;2023-07-31T02:10:37;6.40;;;3.60;;
64197;SDS011;50512;53.666;9.700;2023-07-31T02:13:03;12.70;;;4.03;;
64197;SDS011;50512;53.666;9.700;2023-07-31T02:15:30;11.50;;;3.75;;
64197;SDS011;50512;53.666;9.700;2023-07-31T02:17:58;10.23;;;4.00;;
64197;SDS011;50512;53.666;9.700;2023-07-31T02:20:24;8.18;;;3.90;;
64197;SDS011;50512;53.666;9.700;2023-07-31T02:22:51;9.50;;;3.85;;
64197;SDS011;50512;53.666;9.700;2023-07-31T02:25:17;10.35;;;4.38;;
64197;SDS011;50512;53.666;9.700;2023-07-31T02:27:44;10.23;;;3.83;;
64197;SDS011;50512;53.666;9.700;2023-07-31T02:30:11;8.68;;;4.05;;
64197;SDS011;50512;53.666;9.700;2023-07-31T02:32:37;8.50;;;3.60;;
64197;SDS011;50512;53.666;9.700;2023-07-31T02:35:06;9.20;;;4.13;;
64197;SDS011;50512;53.666;9.700;2023-07-31T02:37:33;8.77;;;3.35;;
64197;SDS011;50512;53.666;9.700;2023-07-31T02:40:00;7.82;;;3.60;;
64197;SDS011;50512;53.666;9.700;2023-07-31T02:42:26;12.07;;;3.35;;
64197;SDS011;50512;53.666;9.700;2023-07-31T02:44:52;11.93;;;4.07;;
64197;SDS011;50512;53.666;9.700;2023-07-31T02:47:20;8.85;;;3.35;;
64197;SDS011;50512;53.666;9.700;2023-07-31T02:49:47;11.90;;;3.95;;
64197;SDS011;50512;53.666;9.700;2023-07-31T02:52:15;6.70;;;3.42;;
64197;SDS011;50512;53.666;9.700;2023-07-31T02:54:41;7.75;;;3.05;;
64197;SDS011;50512;53.666;9.700;2023-07-31T02:57:08;9.15;;;3.90;;
64197;SDS011;50512;53.666;9.700;2023-07-31T02:59:34;8.30;;;3.85;;
64197;SDS011;50512;53.666;9.700;2023-07-31T03:02:00;8.18;;;3.58;;
64197;SDS011;50512;53.666;9.700;2023-07-31T03:04:27;8.80;;;3.78;;
64197;SDS011;50512;53.666;9.700;2023-07-31T03:06:53;8.13;;;3.75;;
64197;SDS011;50512;53.666;9.700;2023-07-31T03:09:21;11.93;;;4.05;;
64197;SDS011;50512;53.666;9.700;2023-07-31T03:11:48;9.95;;;3.20;;
64197;SDS011;50512;53.666;9.700;2023-07-31T03:14:14;12.70;;;3.95;;
64197;SDS011;50512;53.666;9.700;2023-07-31T03:16:40;12.65;;;4.13;;
64197;SDS011;50512;53.666;9.700;2023-07-31T03:19:07;8.60;;;4.38;;
64197;SDS011;50512;53.666;9.700;2023-07-31T03:21:33;11.05;;;4.10;;
64197;SDS011;50512;53.666;9.700;2023-07-31T03:24:00;12.75;;;5.65;;
64197;SDS011;50512;53.666;9.700;2023-07-31T03:26:30;10.73;;;4.25;;
64197;SDS011;50512;53.666;9.700;2023-07-31T03:28:57;11.88;;;4.07;;
64197;SDS011;50512;53.666;9.700;2023-07-31T03:31:23;8.48;;;4.05;;
64197;SDS011;50512;53.666;9.700;2023-07-31T03:33:50;10.48;;;4.00;;
64197;SDS011;50512;53.666;9.700;2023-07-31T03:36:17;12.35;;;4.47;;
64197;SDS011;50512;53.666;9.700;2023-07-31T03:38:43;10.05;;;4.20;;
64197;SDS011;50512;53.666;9.700;2023-07-31T03:41:10;9.15;;;3.88;;
64197;SDS011;50512;53.666;9.700;2023-07-31T03:43:37;9.75;;;3.55;;
64197;SDS011;50512;53.666;9.700;2023-07-31T03:46:04;11.75;;;4.35;;
64197;SDS011;50512;53.666;9.700;2023-07-31T03:48:30;7.80;;;3.47;;
64197;SDS011;50512;53.666;9.700;2023-07-31T03:50:57;6.43;;;3.55;;
64197;SDS011;50512;53.666;9.700;2023-07-31T03:53:23;7.00;;;3.28;;
64197;SDS011;50512;53.666;9.700;2023-07-31T03:55:50;11.60;;;3.85;;
64197;SDS011;50512;53.666;9.700;2023-07-31T03:58:16;6.68;;;3.85;;
64197;SDS011;50512;53.666;9.700;2023-07-31T04:00:45;9.85;;;3.92;;
64197;SDS011;50512;53.666;9.700;2023-07-31T04:03:11;9.65;;;3.28;;
64197;SDS011;50512;53.666;9.700;2023-07-31T04:05:38;9.32;;;3.30;;
64197;SDS011;50512;53.666;9.700;2023-07-31T04:08:05;8.85;;;3.90;;
64197;SDS011;50512;53.666;9.700;2023-07-31T04:10:31;7.95;;;3.63;;
64197;SDS011;50512;53.666;9.700;2023-07-31T04:12:58;6.55;;;3.58;;
64197;SDS011;50512;53.666;9.700;2023-07-31T04:15:25;8.93;;;4.68;;
64197;SDS011;50512;53.666;9.700;2023-07-31T04:17:53;12.40;;;4.55;;
64197;SDS011;50512;53.666;9.700;2023-07-31T04:20:19;7.97;;;4.00;;
64197;SDS011;50512;53.666;9.700;2023-07-31T04:22:45;9.50;;;4.38;;
64197;SDS011;50512;53.666;9.700;2023-07-31T04:25:12;8.90;;;4.35;;
64197;SDS011;50512;53.666;9.700;2023-07-31T04:27:39;8.73;;;4.55;;
64197;SDS011;50512;53.666;9.700;2023-07-31T04:30:06;11.48;;;6.30;;
64197;SDS011;50512;53.666;9.700;2023-07-31T04:32:33;9.18;;;5.13;;
64197;SDS011;50512;53.666;9.700;2023-07-31T04:35:01;9.50;;;4.70;;
64197;SDS011;50512;53.666;9.700;2023-07-31T04:37:28;7.57;;;4.63;;
64197;SDS011;50512;53.666;9.700;2023-07-31T04:39:54;7.97;;;5.00;;
64197;SDS011;50512;53.666;9.700;2023-07-31T04:42:21;8.95;;;5.00;;
64197;SDS011;50512;53.666;9.700;2023-07-31T04:44:47;9.55;;;5.38;;
64197;SDS011;50512;53.666;9.700;2023-07-31T04:47:14;8.65;;;4.68;;
64197;SDS011;50512;53.666;9.700;2023-07-31T04:49:40;7.68;;;4.80;;
64197;SDS011;50512;53.666;9.700;2023-07-31T04:52:08;7.35;;;4.82;;
64197;SDS011;50512;53.666;9.700;2023-07-31T04:54:35;8.85;;;4.85;;
64197;SDS011;50512;53.666;9.700;2023-07-31T04:57:01;7.18;;;4.82;;
64197;SDS011;50512;53.666;9.700;2023-07-31T04:59:28;7.45;;;4.78;;
64197;SDS011;50512;53.666;9.700;2023-07-31T05:01:54;7.75;;;4.75;;
64197;SDS011;50512;53.666;9.700;2023-07-31T05:04:21;8.27;;;4.85;;
64197;SDS011;50512;53.666;9.700;2023-07-31T05:06:47;8.25;;;4.43;;
64197;SDS011;50512;53.666;9.700;2023-07-31T05:09:15;8.27;;;5.10;;
64197;SDS011;50512;53.666;9.700;2023-07-31T05:11:41;8.07;;;4.32;;
64197;SDS011;50512;53.666;9.700;2023-07-31T05:14:08;6.70;;;4.03;;
64197;SDS011;50512;53.666;9.700;2023-07-31T05:16:34;8.35;;;4.63;;
64197;SDS011;50512;53.666;9.700;2023-07-31T05:19:01;6.82;;;4.20;;
64197;SDS011;50512;53.666;9.700;2023-07-31T05:21:27;7.25;;;4.10;;
64197;SDS011;50512;53.666;9.700;2023-07-31T05:23:54;7.00;;;4.70;;
64197;SDS011;50512;53.666;9.700;2023-07-31T05:26:22;9.18;;;4.60;;
64197;SDS011;50512;53.666;9.700;2023-07-31T05:28:48;10.02;;;5.50;;
64197;SDS011;50512;53.666;9.700;2023-07-31T05:31:15;7.35;;;5.18;;
64197;SDS011;50512;53.666;9.700;2023-07-31T05:33:41;10.10;;;4.10;;
64197;SDS011;50512;53.666;9.700;2023-07-31T05:36:08;9.68;;;4.95;;
64197;SDS011;50512;53.666;9.700;2023-07-31T05:38:34;6.15;;;3.90;;
64197;SDS011;50512;53.666;9.700;2023-07-31T05:41:01;9.15;;;5.28;;
64197;SDS011;50512;53.666;9.700;2023-07-31T05:43:28;7.53;;;4.75;;
64197;SDS011;50512;53.666;9.700;2023-07-31T05:45:55;7.65;;;4.75;;
64197;SDS011;50512;53.666;9.700;2023-07-31T05:48:21;11.20;;;6.55;;
64197;SDS011;50512;53.666;9.700;2023-07-31T05:50:48;9.18;;;4.85;;
64197;SDS011;50512;53.666;9.700;2023-07-31T05:53:14;7.45;;;3.80;;
64197;SDS011;50512;53.666;9.700;2023-07-31T05:55:41;8.25;;;4.80;;
64197;SDS011;50512;53.666;9.700;2023-07-31T05:58:07;7.78;;;4.63;;
64197;SDS011;50512;53.666;9.700;2023-07-31T06:00:35;8.20;;;4.60;;
64197;SDS011;50512;53.666;9.700;2023-07-31T06:03:01;7.60;;;3.33;;
64197;SDS011;50512;53.666;9.700;2023-07-31T06:05:29;7.03;;;3.83;;
64197;SDS011;50512;53.666;9.700;2023-07-31T06:07:56;8.48;;;3.90;;
64197;SDS011;50512;53.666;9.700;2023-07-31T06:10:23;7.13;;;3.88;;
64197;SDS011;50512;53.666;9.700;2023-07-31T06:12:49;6.72;;;4.35;;
64197;SDS011;50512;53.666;9.700;2023-07-31T06:15:15;5.45;;;3.40;;
64197;SDS011;50512;53.666;9.700;2023-07-31T06:17:44;6.13;;;3.08;;
64197;SDS011;50512;53.666;9.700;2023-07-31T06:20:10;5.75;;;3.40;;
64197;SDS011;50512;53.666;9.700;2023-07-31T06:22:37;5.22;;;3.15;;
64197;SDS011;50512;53.666;9.700;2023-07-31T06:25:04;6.22;;;3.00;;
64197;SDS011;50512;53.666;9.700;2023-07-31T06:27:31;4.40;;;2.80;;
64197;SDS011;50512;53.666;9.700;2023-07-31T06:29:57;6.22;;;2.80;;
64197;SDS011;50512;53.666;9.700;2023-07-31T06:32:24;4.80;;;2.20;;
64197;SDS011;50512;53.666;9.700;2023-07-31T06:34:51;3.63;;;2.33;;
64197;SDS011;50512;53.666;9.700;2023-07-31T06:37:19;4.78;;;2.58;;
64197;SDS011;50512;53.666;9.700;2023-07-31T06:39:45;4.40;;;2.45;;
64197;SDS011;50512;53.666;9.700;2023-07-31T06:42:11;4.95;;;2.50;;
64197;SDS011;50512;53.666;9.700;2023-07-31T06:44:38;3.47;;;2.28;;
64197;SDS011;50512;53.666;9.700;2023-07-31T06:47:04;4.38;;;2.85;;
64197;SDS011;50512;53.666;9.700;2023-07-31T06:49:33;4.38;;;2.80;;
64197;SDS011;50512;53.666;9.700;2023-07-31T06:52:01;6.07;;;3.45;;
64197;SDS011;50512;53.666;9.700;2023-07-31T06:54:28;5.85;;;2.53;;
64197;SDS011;50512;53.666;9.700;2023-07-31T06:56:54;5.90;;;3.08;;
64197;SDS011;50512;53.666;9.700;2023-07-31T06:59:21;6.53;;;3.42;;
64197;SDS011;50512;53.666;9.700;2023-07-31T07:01:47;7.43;;;4.28;;
64197;SDS011;50512;53.666;9.700;2023-07-31T07:04:14;5.35;;;3.40;;
64197;SDS011;50512;53.666;9.700;2023-07-31T07:06:40;5.85;;;3.20;;
64197;SDS011;50512;53.666;9.700;2023-07-31T07:09:08;6.68;;;3.95;;
64197;SDS011;50512;53.666;9.700;2023-07-31T07:11:34;6.05;;;3.30;;
64197;SDS011;50512;53.666;9.700;2023-07-31T07:14:02;6.35;;;3.58;;
64197;SDS011;50512;53.666;9.700;2023-07-31T07:16:28;6.57;;;3.95;;
64197;SDS011;50512;53.666;9.700;2023-07-31T07:18:55;6.75;;;3.92;;
64197;SDS011;50512;53.666;9.700;2023-07-31T07:21:21;6.28;;;3.80;;
64197;SDS011;50512;53.666;9.700;2023-07-31T07:23:48;6.55;;;3.60;;
64197;SDS011;50512;53.666;9.700;2023-07-31T07:26:15;6.00;;;3.47;;
64197;SDS011;50512;53.666;9.700;2023-07-31T07:28:42;5.88;;;3.70;;
64197;SDS011;50512;53.666;9.700;2023-07-31T07:31:09;5.93;;;3.75;;
64197;SDS011;50512;53.666;9.700;2023-07-31T07:33:35;6.40;;;3.55;;
64197;SDS011;50512;53.666;9.700;2023-07-31T07:36:02;5.63;;;3.50;;
64197;SDS011;50512;53.666;9.700;2023-07-31T07:38:28;5.47;;;3.40;;
64197;SDS011;50512;53.666;9.700;2023-07-31T07:40:55;6.28;;;3.63;;
64197;SDS011;50512;53.666;9.700;2023-07-31T07:43:23;6.68;;;3.50;;
64197;SDS011;50512;53.666;9.700;2023-07-31T07:45:49;8.35;;;4.28;;
64197;SDS011;50512;53.666;9.700;2023-07-31T07:48:16;7.32;;;4.40;;
64197;SDS011;50512;53.666;9.700;2023-07-31T07:50:43;6.68;;;4.15;;
64197;SDS011;50512;53.666;9.700;2023-07-31T07:53:09;10.27;;;4.80;;
64197;SDS011;50512;53.666;9.700;2023-07-31T07:55:35;6.05;;;4.22;;
64197;SDS011;50512;53.666;9.700;2023-07-31T07:58:02;7.07;;;4.50;;
64197;SDS011;50512;53.666;9.700;2023-07-31T08:00:30;7.57;;;4.25;;
64197;SDS011;50512;53.666;9.700;2023-07-31T08:02:56;7.00;;;4.22;;
64197;SDS011;50512;53.666;9.700;2023-07-31T08:05:23;7.45;;;4.88;;
64197;SDS011;50512;53.666;9.700;2023-07-31T08:07:49;8.05;;;4.38;;
64197;SDS011;50512;53.666;9.700;2023-07-31T08:10:16;6.63;;;3.80;;
64197;SDS011;50512;53.666;9.700;2023-07-31T08:12:42;8.75;;;4.88;;
64197;SDS011;50512;53.666;9.700;2023-07-31T08:15:09;6.78;;;4.35;;
64197;SDS011;50512;53.666;9.700;2023-07-31T08:17:37;7.82;;;4.40;;
64197;SDS011;50512;53.666;9.700;2023-07-31T08:20:04;6.70;;;4.03;;
64197;SDS011;50512;53.666;9.700;2023-07-31T08:22:32;5.85;;;3.42;;
64197;SDS011;50512;53.666;9.700;2023-07-31T08:24:58;4.93;;;3.13;;
64197;SDS011;50512;53.666;9.700;2023-07-31T08:27:25;5.65;;;3.38;;
64197;SDS011;50512;53.666;9.700;2023-07-31T08:29:51;5.30;;;3.28;;
64197;SDS011;50512;53.666;9.700;2023-07-31T08:32:18;5.55;;;2.50;;
64197;SDS011;50512;53.666;9.700;2023-07-31T08:34:45;3.90;;;2.55;;
64197;SDS011;50512;53.666;9.700;2023-07-31T08:37:12;4.60;;;3.08;;
64197;SDS011;50512;53.666;9.700;2023-07-31T08:39:38;5.03;;;2.92;;
64197;SDS011;50512;53.666;9.700;2023-07-31T08:42:07;3.50;;;2.28;;
64197;SDS011;50512;53.666;9.700;2023-07-31T08:44:34;4.35;;;2.83;;
64197;SDS011;50512;53.666;9.700;2023-07-31T08:47:01;3.80;;;2.28;;
64197;SDS011;50512;53.666;9.700;2023-07-31T08:49:28;4.20;;;2.53;;
64197;SDS011;50512;53.666;9.700;2023-07-31T08:51:57;4.30;;;2.80;;
64197;SDS011;50512;53.666;9.700;2023-07-31T08:54:24;6.47;;;2.88;;
64197;SDS011;50512;53.666;9.700;2023-07-31T08:56:54;3.67;;;2.47;;
64197;SDS011;50512;53.666;9.700;2023-07-31T08:59:22;9.93;;;2.85;;
64197;SDS011;50512;53.666;9.700;2023-07-31T09:01:50;3.75;;;2.38;;
64197;SDS011;50512;53.666;9.700;2023-07-31T09:04:21;4.05;;;2.47;;
64197;SDS011;50512;53.666;9.700;2023-07-31T09:06:49;4.45;;;2.47;;
64197;SDS011;50512;53.666;9.700;2023-07-31T09:09:18;2.83;;;2.00;;
64197;SDS011;50512;53.666;9.700;2023-07-31T09:11:45;3.47;;;1.92;;
64197;SDS011;50512;53.666;9.700;2023-07-31T09:14:12;3.17;;;2.10;;
64197;SDS011;50512;53.666;9.700;2023-07-31T09:16:50;3.92;;;2.10;;
64197;SDS011;50512;53.666;9.700;2023-07-31T09:19:24;2.42;;;1.50;;
64197;SDS011;50512;53.666;9.700;2023-07-31T09:21:52;2.10;;;1.40;;
64197;SDS011;50512;53.666;9.700;2023-07-31T09:24:25;3.05;;;1.70;;
64197;SDS011;50512;53.666;9.700;2023-07-31T09:26:53;2.67;;;1.42;;
64197;SDS011;50512;53.666;9.700;2023-07-31T09:29:20;6.65;;;1.58;;
64197;SDS011;50512;53.666;9.700;2023-07-31T09:31:47;2.60;;;1.35;;
64197;SDS011;50512;53.666;9.700;2023-07-31T09:34:13;2.45;;;1.70;;
64197;SDS011;50512;53.666;9.700;2023-07-31T09:36:40;2.63;;;1.52;;
64197;SDS011;50512;53.666;9.700;2023-07-31T09:39:08;2.08;;;1.60;;
64197;SDS011;50512;53.666;9.700;2023-07-31T09:41:39;2.88;;;1.70;;
64197;SDS011;50512;53.666;9.700;2023-07-31T09:44:06;2.50;;;1.52;;
64197;SDS011;50512;53.666;9.700;2023-07-31T09:46:34;3.20;;;1.70;;
64197;SDS011;50512;53.666;9.700;2023-07-31T09:49:08;2.00;;;1.40;;
64197;SDS011;50512;53.666;9.700;2023-07-31T09:51:35;2.63;;;1.52;;
64197;SDS011;50512;53.666;9.700;2023-07-31T09:54:03;3.05;;;1.58;;
64197;SDS011;50512;53.666;9.700;2023-07-31T09:56:37;2.53;;;1.27;;
64197;SDS011;50512;53.666;9.700;2023-07-31T09:59:07;3.55;;;1.55;;
64197;SDS011;50512;53.666;9.700;2023-07-31T10:01:36;3.13;;;1.80;;
64197;SDS011;50512;53.666;9.700;2023-07-31T10:04:02;2.33;;;1.65;;
64197;SDS011;50512;53.666;9.700;2023-07-31T10:06:30;3.22;;;1.70;;
64197;SDS011;50512;53.666;9.700;2023-07-31T10:09:00;3.13;;;1.75;;
64197;SDS011;50512;53.666;9.700;2023-07-31T10:11:28;4.05;;;2.28;;
64197;SDS011;50512;53.666;9.700;2023-07-31T10:13:57;2.55;;;1.48;;
64197;SDS011;50512;53.666;9.700;2023-07-31T10:16:24;2.50;;;1.40;;
64197;SDS011;50512;53.666;9.700;2023-07-31T10:18:50;2.05;;;1.20;;
64197;SDS011;50512;53.666;9.700;2023-07-31T10:21:18;3.85;;;1.48;;
64197;SDS011;50512;53.666;9.700;2023-07-31T10:23:45;2.45;;;1.35;;
64197;SDS011;50512;53.666;9.700;2023-07-31T10:26:14;4.90;;;1.48;;
64197;SDS011;50512;53.666;9.700;2023-07-31T10:28:41;4.30;;;1.42;;
64197;SDS011;50512;53.666;9.700;2023-07-31T10:31:10;2.70;;;1.48;;
64197;SDS011;50512;53.666;9.700;2023-07-31T10:33:37;2.15;;;1.15;;
64197;SDS011;50512;53.666;9.700;2023-07-31T10:36:13;2.78;;;1.30;;
64197;SDS011;50512;53.666;9.700;2023-07-31T10:38:41;3.38;;;1.38;;
64197;SDS011;50512;53.666;9.700;2023-07-31T10:41:08;1.90;;;1.20;;
64197;SDS011;50512;53.666;9.700;2023-07-31T10:43:35;2.58;;;1.48;;
64197;SDS011;50512;53.666;9.700;2023-07-31T10:46:05;1.83;;;0.90;;
64197;SDS011;50512;53.666;9.700;2023-07-31T10:48:34;1.98;;;1.10;;
64197;SDS011;50512;53.666;9.700;2023-07-31T10:51:01;2.33;;;0.90;;
64197;SDS011;50512;53.666;9.700;2023-07-31T10:53:33;8.73;;;4.18;;
64197;SDS011;50512;53.666;9.700;2023-07-31T10:56:00;1.95;;;1.23;;
64197;SDS011;50512;53.666;9.700;2023-07-31T10:58:28;1.23;;;0.80;;
64197;SDS011;50512;53.666;9.700;2023-07-31T11:00:56;1.77;;;0.90;;
64197;SDS011;50512;53.666;9.700;2023-07-31T11:03:25;2.08;;;1.20;;
64197;SDS011;50512;53.666;9.700;2023-07-31T11:05:59;1.63;;;1.00;;
64197;SDS011;50512;53.666;9.700;2023-07-31T11:08:28;3.03;;;0.73;;
64197;SDS011;50512;53.666;9.700;2023-07-31T11:11:04;1.02;;;0.68;;
64197;SDS011;50512;53.666;9.700;2023-07-31T11:13:33;0.93;;;0.75;;
64197;SDS011;50512;53.666;9.700;2023-07-31T11:16:05;1.98;;;0.93;;
64197;SDS011;50512;53.666;9.700;2023-07-31T11:18:32;1.98;;;0.80;;
64197;SDS011;50512;53.666;9.700;2023-07-31T11:20:59;1.02;;;0.90;;
64197;SDS011;50512;53.666;9.700;2023-07-31T11:23:26;1.38;;;0.90;;
64197;SDS011;50512;53.666;9.700;2023-07-31T11:25:52;1.90;;;1.02;;
64197;SDS011;50512;53.666;9.700;2023-07-31T11:28:24;1.88;;;1.08;;
64197;SDS011;50512;53.666;9.700;2023-07-31T11:30:51;4.38;;;0.90;;
64197;SDS011;50512;53.666;9.700;2023-07-31T11:33:17;2.05;;;1.13;;
64197;SDS011;50512;53.666;9.700;2023-07-31T11:35:44;2.03;;;1.10;;
64197;SDS011;50512;53.666;9.700;2023-07-31T11:38:22;3.08;;;0.95;;
64197;SDS011;50512;53.666;9.700;2023-07-31T11:40:49;2.15;;;1.08;;
64197;SDS011;50512;53.666;9.700;2023-07-31T11:43:17;1.52;;;1.00;;
64197;SDS011;50512;53.666;9.700;2023-07-31T11:45:44;1.25;;;0.80;;
64197;SDS011;50512;53.666;9.700;2023-07-31T11:48:17;1.80;;;0.88;;
64197;SDS011;50512;53.666;9.700;2023-07-31T11:50:45;1.88;;;1.10;;
64197;SDS011;50512;53.666;9.700;2023-07-31T11:53:12;1.50;;;0.95;;
64197;SDS011;50512;53.666;9.700;2023-07-31T11:55:40;1.40;;;0.93;;
64197;SDS011;50512;53.666;9.700;2023-07-31T11:58:07;3.17;;;1.00;;
64197;SDS011;50512;53.666;9.700;2023-07-31T12:00:34;1.83;;;1.10;;
64197;SDS011;50512;53.666;9.700;2023-07-31T12:03:01;1.70;;;1.10;;
64197;SDS011;50512;53.666;9.700;2023-07-31T12:05:27;1.98;;;1.13;;
64197;SDS011;50512;53.666;9.700;2023-07-31T12:07:54;1.13;;;1.00;;
64197;SDS011;50512;53.666;9.700;2023-07-31T12:10:24;2.70;;;0.80;;
64197;SDS011;50512;53.666;9.700;2023-07-31T12:12:57;1.35;;;0.82;;
64197;SDS011;50512;53.666;9.700;2023-07-31T12:15:28;1.10;;;0.98;;
64197;SDS011;50512;53.666;9.700;2023-07-31T12:17:58;2.30;;;1.00;;
64197;SDS011;50512;53.666;9.700;2023-07-31T12:20:25;1.95;;;1.10;;
64197;SDS011;50512;53.666;9.700;2023-07-31T12:22:52;2.53;;;1.10;;
64197;SDS011;50512;53.666;9.700;2023-07-31T12:25:18;1.25;;;1.00;;
64197;SDS011;50512;53.666;9.700;2023-07-31T12:27:45;1.75;;;0.95;;
64197;SDS011;50512;53.666;9.700;2023-07-31T12:32:55;2.60;;;1.08;;
64197;SDS011;50512;53.666;9.700;2023-07-31T12:35:22;2.05;;;0.98;;
64197;SDS011;50512;53.666;9.700;2023-07-31T12:37:48;3.40;;;1.20;;
64197;SDS011;50512;53.666;9.700;2023-07-31T12:40:15;2.40;;;1.30;;
64197;SDS011;50512;53.666;9.700;2023-07-31T12:42:41;3.30;;;1.40;;
64197;SDS011;50512;53.666;9.700;2023-07-31T12:45:08;2.08;;;1.25;;
64197;SDS011;50512;53.666;9.700;2023-07-31T12:47:36;1.88;;;1.08;;
64197;SDS011;50512;53.666;9.700;2023-07-31T12:50:03;1.33;;;0.80;;
64197;SDS011;50512;53.666;9.700;2023-07-31T12:52:29;1.50;;;1.00;;
64197;SDS011;50512;53.666;9.700;2023-07-31T12:54:56;1.13;;;0.88;;
64197;SDS011;50512;53.666;9.700;2023-07-31T12:57:22;10.82;;;1.27;;
64197;SDS011;50512;53.666;9.700;2023-07-31T12:59:49;1.48;;;1.00;;
64197;SDS011;50512;53.666;9.700;2023-07-31T13:02:15;3.03;;;1.10;;
64197;SDS011;50512;53.666;9.700;2023-07-31T13:04:43;2.35;;;1.00;;
64197;SDS011;50512;53.666;9.700;2023-07-31T13:07:09;1.75;;;0.90;;
64197;SDS011;50512;53.666;9.700;2023-07-31T13:09:36;0.90;;;0.80;;
64197;SDS011;50512;53.666;9.700;2023-07-31T13:12:02;1.83;;;1.08;;
64197;SDS011;50512;53.666;9.700;2023-07-31T13:14:29;1.42;;;0.80;;
64197;SDS011;50512;53.666;9.700;2023-07-31T13:16:55;2.10;;;0.93;;
64197;SDS011;50512;53.666;9.700;2023-07-31T13:19:22;3.08;;;1.00;;
64197;SDS011;50512;53.666;9.700;2023-07-31T13:21:50;1.75;;;0.85;;
64197;SDS011;50512;53.666;9.700;2023-07-31T13:24:16;2.22;;;0.88;;
64197;SDS011;50512;53.666;9.700;2023-07-31T13:26:43;0.80;;;0.70;;
64197;SDS011;50512;53.666;9.700;2023-07-31T13:29:09;0.80;;;0.73;;
64197;SDS011;50512;53.666;9.700;2023-07-31T13:31:36;1.33;;;1.00;;
64197;SDS011;50512;53.666;9.700;2023-07-31T13:34:02;1.15;;;0.68;;
64197;SDS011;50512;53.666;9.700;2023-07-31T13:36:29;1.73;;;0.90;;
64197;SDS011;50512;53.666;9.700;2023-07-31T13:38:57;1.00;;;0.90;;
64197;SDS011;50512;53.666;9.700;2023-07-31T13:41:23;1.85;;;1.00;;
64197;SDS011;50512;53.666;9.700;2023-07-31T13:43:49;1.20;;;0.90;;
64197;SDS011;50512;53.666;9.700;2023-07-31T13:46:16;2.28;;;0.80;;
64197;SDS011;50512;53.666;9.700;2023-07-31T13:48:42;1.50;;;0.90;;
64197;SDS011;50512;53.666;9.700;2023-07-31T13:51:09;2.85;;;0.95;;
64197;SDS011;50512;53.666;9.700;2023-07-31T13:53:35;1.83;;;1.00;;
64197;SDS011;50512;53.666;9.700;2023-07-31T13:56:03;3.75;;;0.90;;
64197;SDS011;50512;53.666;9.700;2023-07-31T13:58:30;1.27;;;0.85;;
64197;SDS011;50512;53.666;9.700;2023-07-31T14:00:56;1.40;;;0.88;;
64197;SDS011;50512;53.666;9.700;2023-07-31T14:03:22;0.95;;;0.60;;
64197;SDS011;50512;53.666;9.700;2023-07-31T14:05:49;3.30;;;0.80;;
64197;SDS011;50512;53.666;9.700;2023-07-31T14:08:16;1.80;;;1.00;;
64197;SDS011;50512;53.666;9.700;2023-07-31T14:10:42;2.33;;;0.88;;
64197;SDS011;50512;53.666;9.700;2023-07-31T14:13:10;1.25;;;0.70;;
64197;SDS011;50512;53.666;9.700;2023-07-31T14:15:36;1.20;;;0.70;;
64197;SDS011;50512;53.666;9.700;2023-07-31T14:18:03;1.13;;;0.73;;
64197;SDS011;50512;53.666;9.700;2023-07-31T14:20:29;1.15;;;0.90;;
64197;SDS011;50512;53.666;9.700;2023-07-31T14:22:56;0.80;;;0.80;;
64197;SDS011;50512;53.666;9.700;2023-07-31T14:25:22;0.70;;;0.60;;
64197;SDS011;50512;53.666;9.700;2023-07-31T14:27:49;1.20;;;0.80;;
64197;SDS011;50512;53.666;9.700;2023-07-31T14:30:17;0.88;;;0.70;;
64197;SDS011;50512;53.666;9.700;2023-07-31T14:32:43;0.82;;;0.82;;
64197;SDS011;50512;53.666;9.700;2023-07-31T14:35:10;1.45;;;0.88;;
64197;SDS011;50512;53.666;9.700;2023-07-31T14:37:37;0.95;;;0.60;;
64197;SDS011;50512;53.666;9.700;2023-07-31T14:40:04;1.75;;;0.90;;
64197;SDS011;50512;53.666;9.700;2023-07-31T14:42:31;1.20;;;0.77;;
64197;SDS011;50512;53.666;9.700;2023-07-31T14:44:58;1.00;;;0.90;;
64197;SDS011;50512;53.666;9.700;2023-07-31T14:47:26;1.23;;;0.80;;
64197;SDS011;50512;53.666;9.700;2023-07-31T14:49:52;1.02;;;0.70;;